createdAt,value
2023-04-19T00:00:06.513Z,2.80
2023-04-19T00:01:06.556Z,2.80
2023-04-19T00:02:06.555Z,2.30
2023-04-19T00:03:06.750Z,2.80
2023-04-19T00:04:06.703Z,2.50
2023-04-19T00:05:06.568Z,2.20
2023-04-19T00:06:06.456Z,2.20
2023-04-19T00:07:06.453Z,2.00
2023-04-19T00:08:06.430Z,2.10
2023-04-19T00:09:06.450Z,2.50
2023-04-19T00:10:06.451Z,2.30
2023-04-19T00:11:06.379Z,2.40
2023-04-19T00:12:06.379Z,2.40
2023-04-19T00:13:06.378Z,2.40
2023-04-19T00:14:06.359Z,2.30
2023-04-19T00:15:06.332Z,2.20
2023-04-19T00:16:06.355Z,2.30
2023-04-19T00:17:06.481Z,2.50
2023-04-19T00:18:06.344Z,2.10
2023-04-19T00:19:06.286Z,2.30
2023-04-19T00:20:06.298Z,2.40
2023-04-19T00:21:06.268Z,2.20
2023-04-19T00:22:06.270Z,2.00
2023-04-19T00:23:06.242Z,2.70
2023-04-19T00:24:06.265Z,2.20
2023-04-19T00:25:06.263Z,1.90
2023-04-19T00:26:06.223Z,2.00
2023-04-19T00:27:06.211Z,2.30
2023-04-19T00:28:06.197Z,2.10
2023-04-19T00:29:06.192Z,2.40
2023-04-19T00:30:06.216Z,2.20
2023-04-19T00:31:06.205Z,2.40
2023-04-19T00:32:06.174Z,2.30
2023-04-19T00:33:06.191Z,2.30
2023-04-19T00:34:06.145Z,2.10
2023-04-19T00:35:06.249Z,2.90
2023-04-19T00:36:06.102Z,2.40
2023-04-19T00:37:06.082Z,2.50
2023-04-19T00:38:06.090Z,2.60
2023-04-19T00:39:06.095Z,2.60
2023-04-19T00:40:06.067Z,2.70
2023-04-19T00:41:06.060Z,2.40
2023-04-19T00:42:06.037Z,2.80
2023-04-19T00:43:06.011Z,2.60
2023-04-19T00:44:06.009Z,2.80
2023-04-19T00:45:06.028Z,2.20
2023-04-19T00:46:06.074Z,2.40
2023-04-19T00:47:05.980Z,2.30
2023-04-19T00:48:06.010Z,2.60
2023-04-19T00:49:06.008Z,2.30
2023-04-19T00:50:05.932Z,2.60
2023-04-19T00:51:05.955Z,2.40
2023-04-19T00:52:05.927Z,2.50
2023-04-19T00:53:05.939Z,2.80
2023-04-19T00:54:05.902Z,2.30
2023-04-19T00:55:05.880Z,2.20
2023-04-19T00:56:05.874Z,2.50
2023-04-19T00:57:05.865Z,2.30
2023-04-19T00:58:05.838Z,2.60
2023-04-19T00:59:05.876Z,2.60
2023-04-19T01:00:05.832Z,2.20
2023-04-19T01:01:05.876Z,2.60
2023-04-19T01:02:05.838Z,2.50
2023-04-19T01:03:05.957Z,3.20
2023-04-19T01:04:05.845Z,2.60
2023-04-19T01:05:05.886Z,2.70
2023-04-19T01:06:05.777Z,2.80
2023-04-19T01:07:05.755Z,2.50
2023-04-19T01:08:05.745Z,2.70
2023-04-19T01:09:05.742Z,2.80
2023-04-19T01:10:05.727Z,3.10
2023-04-19T01:11:05.702Z,2.50
2023-04-19T01:12:05.688Z,3.10
2023-04-19T01:13:05.678Z,2.60
2023-04-19T01:14:05.679Z,2.70
2023-04-19T01:15:05.683Z,2.60
2023-04-19T01:16:05.698Z,2.90
2023-04-19T01:17:05.644Z,3.20
2023-04-19T01:18:05.663Z,3.20
2023-04-19T01:19:05.609Z,2.50
2023-04-19T01:20:05.610Z,2.90
2023-04-19T01:21:05.645Z,2.90
2023-04-19T01:22:05.601Z,2.60
2023-04-19T01:23:05.626Z,3.10
2023-04-19T01:24:05.565Z,2.40
2023-04-19T01:25:05.563Z,2.60
2023-04-19T01:26:05.543Z,2.90
2023-04-19T01:27:05.547Z,2.50
2023-04-19T01:28:05.513Z,3.00
2023-04-19T01:29:05.515Z,3.10
2023-04-19T01:30:05.488Z,2.90
2023-04-19T01:31:05.544Z,3.20
2023-04-19T01:32:05.517Z,3.00
2023-04-19T01:33:05.556Z,2.60
2023-04-19T01:34:05.463Z,2.60
2023-04-19T01:35:05.459Z,2.70
2023-04-19T01:36:05.429Z,3.00
2023-04-19T01:37:05.439Z,3.10
2023-04-19T01:38:05.427Z,2.80
2023-04-19T01:39:05.380Z,2.70
2023-04-19T01:40:05.365Z,3.30
2023-04-19T01:41:05.451Z,2.70
2023-04-19T01:42:05.343Z,3.00
2023-04-19T01:43:05.347Z,2.80
2023-04-19T01:44:05.329Z,2.70
2023-04-19T01:45:05.318Z,2.90
2023-04-19T01:46:05.311Z,3.10
2023-04-19T01:47:05.444Z,3.10
2023-04-19T01:48:05.299Z,2.80
2023-04-19T01:49:05.275Z,2.70
2023-04-19T01:50:05.285Z,3.50
2023-04-19T01:51:05.251Z,3.10
2023-04-19T01:52:05.234Z,2.70
2023-04-19T01:53:05.274Z,2.70
2023-04-19T01:54:05.233Z,2.80
2023-04-19T01:55:05.230Z,2.90
2023-04-19T01:56:05.188Z,3.60
2023-04-19T01:57:05.189Z,3.30
2023-04-19T01:58:05.178Z,2.30
2023-04-19T01:59:05.196Z,3.00
2023-04-19T02:00:05.144Z,3.30
2023-04-19T02:01:05.205Z,3.10
2023-04-19T02:02:05.198Z,3.00
2023-04-19T02:03:05.292Z,2.70
2023-04-19T02:04:05.194Z,3.00
2023-04-19T02:05:05.088Z,3.20
2023-04-19T02:06:05.074Z,2.70
2023-04-19T02:07:05.070Z,3.20
2023-04-19T02:08:05.098Z,2.90
2023-04-19T02:09:05.087Z,2.70
2023-04-19T02:10:05.052Z,3.20
2023-04-19T02:11:05.018Z,3.00
2023-04-19T02:12:05.009Z,3.50
2023-04-19T02:13:05.021Z,3.50
2023-04-19T02:14:04.994Z,3.10
2023-04-19T02:15:04.981Z,3.40
2023-04-19T02:16:04.994Z,2.80
2023-04-19T02:17:04.967Z,3.00
2023-04-19T02:18:04.973Z,3.00
2023-04-19T02:19:04.945Z,3.20
2023-04-19T02:20:04.943Z,3.20
2023-04-19T02:21:04.967Z,3.60
2023-04-19T02:22:04.920Z,3.40
2023-04-19T02:23:04.902Z,2.90
2023-04-19T02:24:04.887Z,3.10
2023-04-19T02:25:04.945Z,3.30
2023-04-19T02:26:04.862Z,3.40
2023-04-19T02:27:04.855Z,3.20
2023-04-19T02:28:04.838Z,3.10
2023-04-19T02:29:06.778Z,3.30
2023-04-19T02:30:04.820Z,3.60
2023-04-19T02:31:04.917Z,3.20
2023-04-19T02:32:04.837Z,3.80
2023-04-19T02:33:04.886Z,3.10
2023-04-19T02:34:04.779Z,3.50
2023-04-19T02:35:04.752Z,3.30
2023-04-19T02:36:04.775Z,3.40
2023-04-19T02:37:04.757Z,3.30
2023-04-19T02:38:04.733Z,3.20
2023-04-19T02:39:04.708Z,3.50
2023-04-19T02:40:04.695Z,3.60
2023-04-19T02:41:04.708Z,3.10
2023-04-19T02:42:04.686Z,3.10
2023-04-19T02:43:04.669Z,3.20
2023-04-19T02:44:04.658Z,3.20
2023-04-19T02:45:04.644Z,3.30
2023-04-19T02:46:04.697Z,3.20
2023-04-19T02:47:04.632Z,3.30
2023-04-19T02:48:04.691Z,3.10
2023-04-19T02:49:04.614Z,3.30
2023-04-19T02:50:04.615Z,3.40
2023-04-19T02:51:04.622Z,3.10
2023-04-19T02:52:04.601Z,3.30
2023-04-19T02:53:04.559Z,3.40
2023-04-19T02:54:04.551Z,3.50
2023-04-19T02:55:04.522Z,3.20
2023-04-19T02:56:04.526Z,3.20
2023-04-19T02:57:04.665Z,3.70
2023-04-19T02:58:04.525Z,3.40
2023-04-19T02:59:04.495Z,3.80
2023-04-19T03:00:04.483Z,3.50
2023-04-19T03:01:04.580Z,3.50
2023-04-19T03:02:04.481Z,3.60
2023-04-19T03:03:04.692Z,4.00
2023-04-19T03:04:04.449Z,3.60
2023-04-19T03:05:04.423Z,3.90
2023-04-19T03:06:04.432Z,4.00
2023-04-19T03:07:04.413Z,3.50
2023-04-19T03:08:04.392Z,3.80
2023-04-19T03:09:04.376Z,3.60
2023-04-19T03:10:04.389Z,3.40
2023-04-19T03:11:04.370Z,3.50
2023-04-19T03:12:04.331Z,3.80
2023-04-19T03:13:04.383Z,3.40
2023-04-19T03:14:04.327Z,4.40
2023-04-19T03:15:04.320Z,4.30
2023-04-19T03:16:04.409Z,3.90
2023-04-19T03:17:04.314Z,3.70
2023-04-19T03:18:04.502Z,3.20
2023-04-19T03:19:04.273Z,3.50
2023-04-19T03:20:04.281Z,3.60
2023-04-19T03:21:04.253Z,4.00
2023-04-19T03:22:04.253Z,3.50
2023-04-19T03:23:04.205Z,3.60
2023-04-19T03:24:04.236Z,4.00
2023-04-19T03:25:04.194Z,3.50
2023-04-19T03:26:04.184Z,3.50
2023-04-19T03:27:04.176Z,3.60
2023-04-19T03:28:04.202Z,3.10
2023-04-19T03:29:04.190Z,3.90
2023-04-19T03:30:04.138Z,3.60
2023-04-19T03:31:04.165Z,3.60
2023-04-19T03:32:04.132Z,4.00
2023-04-19T03:33:04.159Z,3.80
2023-04-19T03:34:04.102Z,3.00
2023-04-19T03:35:04.104Z,3.40
2023-04-19T03:36:04.074Z,3.90
2023-04-19T03:37:04.066Z,3.30
2023-04-19T03:38:04.055Z,4.10
2023-04-19T03:39:04.057Z,3.40
2023-04-19T03:40:04.026Z,3.90
2023-04-19T03:41:04.024Z,2.50
2023-04-19T03:42:04.022Z,2.70
2023-04-19T03:43:03.977Z,3.50
2023-04-19T03:44:04.007Z,3.20
2023-04-19T03:45:04.046Z,3.30
2023-04-19T03:46:04.016Z,3.30
2023-04-19T03:47:03.957Z,3.30
2023-04-19T03:48:03.972Z,2.70
2023-04-19T03:49:03.942Z,3.20
2023-04-19T03:50:03.916Z,3.10
2023-04-19T03:51:03.905Z,3.10
2023-04-19T03:52:03.902Z,4.00
2023-04-19T03:53:03.894Z,4.00
2023-04-19T03:54:03.882Z,3.50
2023-04-19T03:55:03.880Z,3.40
2023-04-19T03:56:03.850Z,3.60
2023-04-19T03:57:03.850Z,4.00
2023-04-19T03:58:03.812Z,3.20
2023-04-19T03:59:03.818Z,2.70
2023-04-19T04:00:03.785Z,3.30
2023-04-19T04:01:03.813Z,2.80
2023-04-19T04:02:03.866Z,3.60
2023-04-19T04:03:04.000Z,3.70
2023-04-19T04:04:05.137Z,3.90
2023-04-19T04:05:03.819Z,3.90
2023-04-19T04:06:03.722Z,3.80
2023-04-19T04:07:03.716Z,3.10
2023-04-19T04:08:03.717Z,2.40
2023-04-19T04:09:04.118Z,2.70
2023-04-19T04:10:03.716Z,3.20
2023-04-19T04:11:03.679Z,2.80
2023-04-19T04:12:03.668Z,3.10
2023-04-19T04:13:03.642Z,2.90
2023-04-19T04:14:03.669Z,3.20
2023-04-19T04:15:03.629Z,3.00
2023-04-19T04:16:03.737Z,3.60
2023-04-19T04:17:03.644Z,3.60
2023-04-19T04:18:03.678Z,4.20
2023-04-19T04:19:03.598Z,3.90
2023-04-19T04:20:03.590Z,3.80
2023-04-19T04:21:03.586Z,3.40
2023-04-19T04:22:03.559Z,3.10
2023-04-19T04:23:03.548Z,2.80
2023-04-19T04:24:03.520Z,3.20
2023-04-19T04:25:03.550Z,3.80
2023-04-19T04:26:03.520Z,3.50
2023-04-19T04:27:03.542Z,3.30
2023-04-19T04:28:03.497Z,3.50
2023-04-19T04:29:03.503Z,3.10
2023-04-19T04:30:03.466Z,3.30
2023-04-19T04:31:03.469Z,3.90
2023-04-19T04:32:03.525Z,3.10
2023-04-19T04:33:03.545Z,3.70
2023-04-19T04:34:03.433Z,4.10
2023-04-19T04:35:03.451Z,3.20
2023-04-19T04:36:03.407Z,3.80
2023-04-19T04:37:03.444Z,3.70
2023-04-19T04:38:11.061Z,4.00
2023-04-19T04:39:04.364Z,4.40
2023-04-19T04:40:03.382Z,3.90
2023-04-19T04:41:03.369Z,4.10
2023-04-19T04:42:03.373Z,3.50
2023-04-19T04:43:03.355Z,2.90
2023-04-19T04:45:03.354Z,3.20
2023-04-19T04:46:03.359Z,3.60
2023-04-19T04:47:03.316Z,3.70
2023-04-19T04:48:03.340Z,3.60
2023-04-19T04:49:03.322Z,2.80
2023-04-19T04:50:03.270Z,2.90
2023-04-19T04:51:03.245Z,3.40
2023-04-19T04:52:03.269Z,3.70
2023-04-19T04:53:03.228Z,3.90
2023-04-19T04:54:03.225Z,3.40
2023-04-19T04:55:03.224Z,3.10
2023-04-19T04:56:03.221Z,3.90
2023-04-19T04:57:03.213Z,3.00
2023-04-19T04:58:03.193Z,3.10
2023-04-19T04:59:03.161Z,3.30
2023-04-19T05:00:03.146Z,3.10
2023-04-19T05:01:03.201Z,3.20
2023-04-19T05:02:03.188Z,3.00
2023-04-19T05:03:03.527Z,2.70
2023-04-19T05:04:03.115Z,3.50
2023-04-19T05:05:03.184Z,3.00
2023-04-19T05:06:03.121Z,3.10
2023-04-19T05:07:03.071Z,2.60
2023-04-19T05:08:03.094Z,3.10
2023-04-19T05:09:03.063Z,2.90
2023-04-19T05:10:03.112Z,3.10
2023-04-19T05:11:03.039Z,3.40
2023-04-19T05:12:03.024Z,3.20
2023-04-19T05:13:03.011Z,3.40
2023-04-19T05:14:03.031Z,3.40
2023-04-19T05:15:03.000Z,3.80
2023-04-19T05:16:03.082Z,3.50
2023-04-19T05:17:04.320Z,3.00
2023-04-19T05:18:03.046Z,2.80
2023-04-19T05:19:02.952Z,3.40
2023-04-19T05:20:02.959Z,3.20
2023-04-19T05:21:02.989Z,3.20
2023-04-19T05:22:02.964Z,2.90
2023-04-19T05:23:02.923Z,3.60
2023-04-19T05:24:02.923Z,2.90
2023-04-19T05:25:02.885Z,3.20
2023-04-19T05:26:02.858Z,2.80
2023-04-19T05:27:02.877Z,3.00
2023-04-19T05:28:02.862Z,3.20
2023-04-19T05:29:02.827Z,3.60
2023-04-19T05:30:02.827Z,3.10
2023-04-19T05:31:02.853Z,2.70
2023-04-19T05:32:02.810Z,2.70
2023-04-19T05:33:02.889Z,2.90
2023-04-19T05:34:02.806Z,3.40
2023-04-19T05:35:02.770Z,3.50
2023-04-19T05:36:02.795Z,4.00
2023-04-19T05:37:02.752Z,3.60
2023-04-19T05:38:02.785Z,4.00
2023-04-19T05:39:02.802Z,3.40
2023-04-19T05:40:02.713Z,3.80
2023-04-19T05:41:02.689Z,3.30
2023-04-19T05:42:02.694Z,2.80
2023-04-19T05:43:02.730Z,2.80
2023-04-19T05:44:02.683Z,2.90
2023-04-19T05:45:04.633Z,2.90
2023-04-19T05:46:02.698Z,3.00
2023-04-19T05:47:02.636Z,3.10
2023-04-19T05:48:02.695Z,2.90
2023-04-19T05:49:02.620Z,2.70
2023-04-19T05:50:02.606Z,3.20
2023-04-19T05:51:02.610Z,3.00
2023-04-19T05:52:02.572Z,3.80
2023-04-19T05:53:02.629Z,3.30
2023-04-19T05:54:02.568Z,3.50
2023-04-19T05:55:02.781Z,4.30
2023-04-19T05:56:02.556Z,3.50
2023-04-19T05:57:02.545Z,4.00
2023-04-19T05:58:02.550Z,4.00
2023-04-19T05:59:02.509Z,4.00
2023-04-19T06:00:02.891Z,4.00
2023-04-19T06:01:02.502Z,3.80
2023-04-19T06:02:02.667Z,4.10
2023-04-19T06:03:02.628Z,4.00
2023-04-19T06:04:02.733Z,3.70
2023-04-19T06:05:05.150Z,4.10
2023-04-19T06:06:06.195Z,3.30
2023-04-19T06:07:04.506Z,3.30
2023-04-19T06:08:03.192Z,3.70
2023-04-19T06:09:02.531Z,4.10
2023-04-19T06:10:02.387Z,4.50
2023-04-19T06:11:08.319Z,4.30
2023-04-19T06:12:03.351Z,3.90
2023-04-19T06:13:03.133Z,3.90
2023-04-19T06:14:02.363Z,3.80
2023-04-19T06:15:02.318Z,3.70
2023-04-19T06:16:02.383Z,3.60
2023-04-19T06:17:02.291Z,3.90
2023-04-19T06:18:02.383Z,4.00
2023-04-19T06:19:02.279Z,3.90
2023-04-19T06:20:02.405Z,3.40
2023-04-19T06:21:02.297Z,3.80
2023-04-19T06:22:02.319Z,4.20
2023-04-19T06:23:02.240Z,4.00
2023-04-19T06:24:02.238Z,3.90
2023-04-19T06:25:02.273Z,3.70
2023-04-19T06:26:02.289Z,3.70
2023-04-19T06:27:02.246Z,3.70
2023-04-19T06:28:03.137Z,3.60
2023-04-19T06:29:02.162Z,4.00
2023-04-19T06:30:02.162Z,3.60
2023-04-19T06:31:02.179Z,4.50
2023-04-19T06:32:02.281Z,3.70
2023-04-19T06:33:02.406Z,4.00
2023-04-19T06:34:02.131Z,4.10
2023-04-19T06:35:02.102Z,4.00
2023-04-19T06:36:02.072Z,4.20
2023-04-19T06:37:02.090Z,3.90
2023-04-19T06:38:02.209Z,3.50
2023-04-19T06:39:02.062Z,3.90
2023-04-19T06:40:02.039Z,4.50
2023-04-19T06:41:02.061Z,4.20
2023-04-19T06:42:02.046Z,3.50
2023-04-19T06:43:02.039Z,4.30
2023-04-19T06:44:01.998Z,4.40
2023-04-19T06:45:02.013Z,4.10
2023-04-19T06:46:02.135Z,4.00
2023-04-19T06:47:01.962Z,3.50
2023-04-19T06:48:02.027Z,3.70
2023-04-19T06:49:01.974Z,4.00
2023-04-19T06:50:01.923Z,4.50
2023-04-19T06:51:02.078Z,4.00
2023-04-19T06:52:02.017Z,4.30
2023-04-19T06:53:04.074Z,4.30
2023-04-19T06:54:01.868Z,3.90
2023-04-19T06:55:01.889Z,4.10
2023-04-19T06:56:01.874Z,4.20
2023-04-19T06:57:01.931Z,4.30
2023-04-19T06:58:01.894Z,3.70
2023-04-19T06:59:01.825Z,3.80
2023-04-19T07:00:02.122Z,4.20
2023-04-19T07:01:01.871Z,4.00
2023-04-19T07:02:01.865Z,4.30
2023-04-19T07:03:01.986Z,3.80
2023-04-19T07:04:02.082Z,4.20
2023-04-19T07:05:01.775Z,4.00
2023-04-19T07:06:01.773Z,4.10
2023-04-19T07:07:01.758Z,3.80
2023-04-19T07:08:01.740Z,3.90
2023-04-19T07:09:01.720Z,3.90
2023-04-19T07:10:01.689Z,3.20
2023-04-19T07:11:01.750Z,4.40
2023-04-19T07:12:01.692Z,3.90
2023-04-19T07:13:01.709Z,4.20
2023-04-19T07:14:01.696Z,4.30
2023-04-19T07:15:01.673Z,4.10
2023-04-19T07:16:01.654Z,4.40
2023-04-19T07:17:01.621Z,4.50
2023-04-19T07:18:01.646Z,4.30
2023-04-19T07:19:01.691Z,4.20
2023-04-19T07:20:01.633Z,3.60
2023-04-19T07:21:01.712Z,4.00
2023-04-19T07:22:01.566Z,3.80
2023-04-19T07:23:01.749Z,3.70
2023-04-19T07:24:01.542Z,4.20
2023-04-19T07:25:01.561Z,4.40
2023-04-19T07:26:02.171Z,4.30
2023-04-19T07:27:01.507Z,3.90
2023-04-19T07:28:01.530Z,3.30
2023-04-19T07:29:01.537Z,3.90
2023-04-19T07:30:01.571Z,3.30
2023-04-19T07:31:01.486Z,3.50
2023-04-19T07:32:01.718Z,4.40
2023-04-19T07:33:01.446Z,3.70
2023-04-19T07:34:01.444Z,4.40
2023-04-19T07:35:01.445Z,4.10
2023-04-19T07:36:01.730Z,3.90
2023-04-19T07:37:01.778Z,3.80
2023-04-19T07:38:01.448Z,4.20
2023-04-19T07:39:01.393Z,3.50
2023-04-19T07:40:01.377Z,3.50
2023-04-19T07:41:01.352Z,3.90
2023-04-19T07:42:02.163Z,4.20
2023-04-19T07:43:01.338Z,3.70
2023-04-19T07:44:01.328Z,3.60
2023-04-19T07:45:01.322Z,3.40
2023-04-19T07:46:01.318Z,4.10
2023-04-19T07:47:01.279Z,3.40
2023-04-19T07:48:01.280Z,4.00
2023-04-19T07:49:01.329Z,3.90
2023-04-19T07:50:01.297Z,3.70
2023-04-19T07:51:01.289Z,3.60
2023-04-19T07:52:01.229Z,3.80
2023-04-19T07:53:01.195Z,3.50
2023-04-19T07:54:01.192Z,4.00
2023-04-19T07:55:01.197Z,3.70
2023-04-19T07:56:01.167Z,3.80
2023-04-19T07:57:01.195Z,4.00
2023-04-19T07:58:01.186Z,3.00
2023-04-19T07:59:08.456Z,3.40
2023-04-19T08:00:02.118Z,3.70
2023-04-19T08:01:01.390Z,3.20
2023-04-19T08:02:01.234Z,3.50
2023-04-19T08:03:01.248Z,3.80
2023-04-19T08:04:01.685Z,3.40
2023-04-19T08:05:01.322Z,3.10
2023-04-19T08:06:01.183Z,3.40
2023-04-19T08:07:01.094Z,3.40
2023-04-19T08:08:01.076Z,3.50
2023-04-19T08:09:01.020Z,3.70
2023-04-19T08:10:01.087Z,3.40
2023-04-19T08:11:02.058Z,4.00
2023-04-19T08:12:00.996Z,3.50
2023-04-19T08:13:05.005Z,3.60
2023-04-19T08:14:09.306Z,3.40
2023-04-19T08:15:14.943Z,3.60
2023-04-19T08:16:39.870Z,3.70
2023-04-19T08:18:00.992Z,3.40
2023-04-19T08:19:00.936Z,3.40
2023-04-19T08:20:01.007Z,3.40
2023-04-19T08:21:00.931Z,3.00
2023-04-19T08:22:00.963Z,3.40
2023-04-19T08:23:10.465Z,3.80
2023-04-19T08:24:01.906Z,3.70
2023-04-19T08:25:01.665Z,3.70
2023-04-19T08:26:00.894Z,3.20
2023-04-19T08:27:00.815Z,3.60
2023-04-19T08:28:00.851Z,3.40
2023-04-19T08:29:00.792Z,3.30
2023-04-19T08:30:00.777Z,3.70
2023-04-19T08:31:00.800Z,3.50
2023-04-19T08:32:00.827Z,3.70
2023-04-19T08:33:01.054Z,3.30
2023-04-19T08:34:00.809Z,3.80
2023-04-19T08:35:00.733Z,3.30
2023-04-19T08:36:00.750Z,3.70
2023-04-19T08:37:03.928Z,3.70
2023-04-19T08:38:02.594Z,3.60
2023-04-19T08:39:06.614Z,4.20
2023-04-19T08:40:01.664Z,3.60
2023-04-19T08:41:00.689Z,3.70
2023-04-19T08:42:06.596Z,3.60
2023-04-19T08:43:01.718Z,4.20
2023-04-19T08:44:00.635Z,3.70
2023-04-19T08:46:00.798Z,3.40
2023-04-19T08:47:00.648Z,3.80
2023-04-19T08:48:02.129Z,4.00
2023-04-19T08:49:00.703Z,3.80
2023-04-19T08:50:11.135Z,3.40
2023-04-19T08:51:05.559Z,3.80
2023-04-19T08:52:00.539Z,3.30
2023-04-19T08:53:08.511Z,3.40
2023-04-19T08:54:02.161Z,3.60
2023-04-19T08:55:00.537Z,3.90
2023-04-19T08:57:00.499Z,3.60
2023-04-19T08:58:00.487Z,3.60
2023-04-19T08:59:19.975Z,3.40
2023-04-19T09:00:01.611Z,3.70
2023-04-19T09:01:00.606Z,3.60
2023-04-19T09:02:00.570Z,3.40
2023-04-19T09:03:00.658Z,3.90
2023-04-19T09:04:07.118Z,3.30
2023-04-19T09:05:01.868Z,3.50
2023-04-19T09:06:00.510Z,3.60
2023-04-19T09:07:00.380Z,3.60
2023-04-19T09:08:00.376Z,3.80
2023-04-19T09:09:00.351Z,3.50
2023-04-19T09:10:03.622Z,3.10
2023-04-19T09:11:00.348Z,3.60
2023-04-19T09:12:00.416Z,3.80
2023-04-19T09:13:00.299Z,3.70
2023-04-19T09:14:00.280Z,3.60
2023-04-19T09:15:02.165Z,3.60
2023-04-19T09:16:00.352Z,3.40
2023-04-19T09:17:00.289Z,3.10
2023-04-19T09:18:00.326Z,2.60
2023-04-19T09:19:15.324Z,2.80
2023-04-19T09:20:01.258Z,3.30
2023-04-19T09:21:00.272Z,2.90
2023-04-19T09:22:00.204Z,2.90
2023-04-19T09:23:00.175Z,2.60
2023-04-19T09:24:01.812Z,2.90
2023-04-19T09:26:22.301Z,2.20
2023-04-19T09:27:01.162Z,3.00
2023-04-19T09:28:00.171Z,2.20
2023-04-19T09:29:00.151Z,2.50
2023-04-19T09:30:00.223Z,2.80
2023-04-19T09:31:10.695Z,2.80
2023-04-19T09:32:01.182Z,2.70
2023-04-19T09:33:00.248Z,3.20
2023-04-19T09:34:00.073Z,2.70
2023-04-19T09:35:00.070Z,2.90
2023-04-19T09:36:00.077Z,2.60
2023-04-19T09:37:08.951Z,2.60
2023-04-19T09:38:05.683Z,3.10
2023-04-19T09:39:01.203Z,2.20
2023-04-19T09:40:00.022Z,2.90
2023-04-19T09:40:59.989Z,2.60
2023-04-19T09:41:59.977Z,2.70
2023-04-19T09:43:14.962Z,2.70
2023-04-19T09:44:21.621Z,2.40
2023-04-19T09:45:28.418Z,2.30
2023-04-19T09:46:00.940Z,2.30
2023-04-19T09:46:59.963Z,2.50
2023-04-19T09:48:00.042Z,2.30
2023-04-19T09:49:01.940Z,2.40
2023-04-19T09:50:00.769Z,2.30
2023-04-19T09:51:04.555Z,2.50
2023-04-19T09:52:00.856Z,2.30
2023-04-19T09:52:59.917Z,2.20
2023-04-19T09:53:59.857Z,1.80
2023-04-19T09:54:59.836Z,2.50
2023-04-19T09:56:02.306Z,2.40
2023-04-19T09:57:01.438Z,2.30
2023-04-19T09:57:59.834Z,2.40
2023-04-19T09:59:20.054Z,2.20
2023-04-19T10:00:00.845Z,2.40
2023-04-19T10:01:10.790Z,2.70
2023-04-19T10:02:00.984Z,2.20
2023-04-19T10:02:59.788Z,2.00
2023-04-19T10:04:14.455Z,2.10
2023-04-19T10:05:16.308Z,1.90
2023-04-19T10:06:10.170Z,2.60
2023-04-19T10:07:25.249Z,2.60
2023-04-19T10:08:01.244Z,2.10
2023-04-19T10:08:59.704Z,1.90
2023-04-19T10:10:59.670Z,2.40
2023-04-19T10:12:07.839Z,2.40
2023-04-19T10:13:16.161Z,2.10
2023-04-19T10:14:00.637Z,2.10
2023-04-19T10:14:59.596Z,2.90
2023-04-19T10:16:11.607Z,2.30
2023-04-19T10:17:00.655Z,1.90
2023-04-19T10:17:59.624Z,2.30
2023-04-19T10:18:59.562Z,1.90
2023-04-19T10:19:59.589Z,2.10
2023-04-19T10:20:59.546Z,2.50
2023-04-19T10:21:59.528Z,2.20
2023-04-19T10:22:59.571Z,2.30
2023-04-19T10:23:59.505Z,1.90
2023-04-19T10:24:59.616Z,2.30
2023-04-19T10:25:59.491Z,2.20
2023-04-19T10:26:59.535Z,2.30
2023-04-19T10:27:59.477Z,2.30
2023-04-19T10:28:59.497Z,2.20
2023-04-19T10:29:59.460Z,3.00
2023-04-19T10:30:59.585Z,2.40
2023-04-19T10:31:59.500Z,2.70
2023-04-19T10:32:59.479Z,2.50
2023-04-19T10:33:59.395Z,2.40
2023-04-19T10:34:59.422Z,2.80
2023-04-19T10:35:59.436Z,2.10
2023-04-19T10:36:59.433Z,2.50
2023-04-19T10:37:59.362Z,2.40
2023-04-19T10:38:59.397Z,2.20
2023-04-19T10:39:59.323Z,2.20
2023-04-19T10:40:59.360Z,2.10
2023-04-19T10:41:59.539Z,1.90
2023-04-19T10:42:59.304Z,2.40
2023-04-19T10:43:59.330Z,2.10
2023-04-19T10:44:59.279Z,1.90
2023-04-19T10:45:59.337Z,1.50
2023-04-19T10:46:59.755Z,1.60
2023-04-19T10:47:59.253Z,1.80
2023-04-19T10:48:59.224Z,1.80
2023-04-19T10:49:59.233Z,1.90
2023-04-19T10:50:59.253Z,1.90
2023-04-19T10:51:59.221Z,1.50
2023-04-19T10:52:59.182Z,2.10
2023-04-19T10:53:59.218Z,1.60
2023-04-19T10:54:59.229Z,1.40
2023-04-19T10:55:59.191Z,2.00
2023-04-19T10:56:59.214Z,1.70
2023-04-19T10:57:59.129Z,2.10
2023-04-19T10:58:59.130Z,1.70
2023-04-19T10:59:59.166Z,2.00
2023-04-19T11:00:59.132Z,1.70
2023-04-19T11:01:59.250Z,1.60
2023-04-19T11:02:59.292Z,1.20
2023-04-19T11:03:59.148Z,1.40
2023-04-19T11:04:59.077Z,1.60
2023-04-19T11:05:59.064Z,1.50
2023-04-19T11:06:59.054Z,1.60
2023-04-19T11:07:59.018Z,1.30
2023-04-19T11:08:59.023Z,1.30
2023-04-19T11:09:59.007Z,1.50
2023-04-19T11:10:59.006Z,1.40
2023-04-19T11:11:58.968Z,1.40
2023-04-19T11:12:59.035Z,1.50
2023-04-19T11:13:59.092Z,1.10
2023-04-19T11:14:59.736Z,1.30
2023-04-19T11:15:58.976Z,1.60
2023-04-19T11:16:59.044Z,1.50
2023-04-19T11:18:11.842Z,1.60
2023-04-19T11:18:59.901Z,1.10
2023-04-19T11:19:59.223Z,1.60
2023-04-19T11:20:58.882Z,1.60
2023-04-19T11:21:58.881Z,1.20
2023-04-19T11:22:58.885Z,1.50
2023-04-19T11:23:58.943Z,1.00
2023-04-19T11:24:58.826Z,1.50
2023-04-19T11:25:58.825Z,1.20
2023-04-19T11:26:58.789Z,1.40
2023-04-19T11:27:58.825Z,1.50
2023-04-19T11:28:58.808Z,1.30
2023-04-19T11:29:58.766Z,0.90
2023-04-19T11:30:58.810Z,1.00
2023-04-19T11:31:58.736Z,1.20
2023-04-19T11:32:58.821Z,1.40
2023-04-19T11:33:58.736Z,1.30
2023-04-19T11:34:58.698Z,1.20
2023-04-19T11:35:58.700Z,1.10
2023-04-19T11:36:58.679Z,1.30
2023-04-19T11:37:58.838Z,1.20
2023-04-19T11:38:58.672Z,0.90
2023-04-19T11:39:58.662Z,1.30
2023-04-19T11:40:58.646Z,1.20
2023-04-19T11:41:58.628Z,1.40
2023-04-19T11:42:58.638Z,1.10
2023-04-19T11:43:58.617Z,1.00
2023-04-19T11:44:58.648Z,1.60
2023-04-19T11:45:58.584Z,1.10
2023-04-19T11:46:58.688Z,1.30
2023-04-19T11:47:58.621Z,1.40
2023-04-19T11:48:58.598Z,0.90
2023-04-19T11:49:58.558Z,1.30
2023-04-19T11:50:58.594Z,1.10
2023-04-19T11:51:58.597Z,1.50
2023-04-19T11:52:58.559Z,1.30
2023-04-19T11:53:58.523Z,1.30
2023-04-19T11:54:58.517Z,1.40
2023-04-19T11:55:58.530Z,1.40
2023-04-19T11:56:58.460Z,1.20
2023-04-19T11:57:58.427Z,0.90
2023-04-19T11:58:58.438Z,1.30
2023-04-19T11:59:58.452Z,1.00
2023-04-19T12:00:58.544Z,1.50
2023-04-19T12:01:58.514Z,1.20
2023-04-19T12:02:58.633Z,1.40
2023-04-19T12:03:58.626Z,1.30
2023-04-19T12:04:58.700Z,1.20
2023-04-19T12:05:58.635Z,1.10
2023-04-19T12:06:58.390Z,1.00
2023-04-19T12:07:58.429Z,1.20
2023-04-19T12:08:58.334Z,1.10
2023-04-19T12:09:58.311Z,1.00
2023-04-19T12:10:58.346Z,1.00
2023-04-19T12:11:58.336Z,0.90
2023-04-19T12:12:58.299Z,1.10
2023-04-19T12:13:58.321Z,1.20
2023-04-19T12:14:58.255Z,1.50
2023-04-19T12:15:58.253Z,1.10
2023-04-19T12:16:58.407Z,1.00
2023-04-19T12:17:58.245Z,1.40
2023-04-19T12:18:58.232Z,1.10
2023-04-19T12:19:58.191Z,1.40
2023-04-19T12:21:00.800Z,0.90
2023-04-19T12:21:58.241Z,1.20
2023-04-19T12:22:58.253Z,1.20
2023-04-19T12:23:58.220Z,1.10
2023-04-19T12:24:58.149Z,1.30
2023-04-19T12:25:58.122Z,1.10
2023-04-19T12:27:59.130Z,0.90
2023-04-19T12:28:14.510Z,1.80
2023-04-19T12:28:58.141Z,1.50
2023-04-19T12:29:58.090Z,1.10
2023-04-19T12:30:58.109Z,1.50
2023-04-19T12:31:58.158Z,1.60
2023-04-19T12:32:58.217Z,1.10
2023-04-19T12:33:58.083Z,1.30
2023-04-19T12:34:58.076Z,0.90
2023-04-19T12:35:58.064Z,1.50
2023-04-19T12:36:58.031Z,1.20
2023-04-19T12:37:58.016Z,1.50
2023-04-19T12:38:58.015Z,1.20
2023-04-19T12:39:57.987Z,1.30
2023-04-19T12:40:57.998Z,1.20
2023-04-19T12:41:57.983Z,1.00
2023-04-19T12:42:57.957Z,1.20
2023-04-19T12:43:57.961Z,1.00
2023-04-19T12:44:57.937Z,1.20
2023-04-19T12:45:58.020Z,1.10
2023-04-19T12:46:58.092Z,1.30
2023-04-19T12:47:57.923Z,1.40
2023-04-19T12:48:57.896Z,1.20
2023-04-19T12:49:57.855Z,1.40
2023-04-19T12:50:57.927Z,0.80
2023-04-19T12:51:57.843Z,1.20
2023-04-19T12:52:57.812Z,1.20
2023-04-19T12:53:58.173Z,1.30
2023-04-19T12:54:57.798Z,0.70
2023-04-19T12:55:57.808Z,1.20
2023-04-19T12:56:57.804Z,0.80
2023-04-19T12:57:57.767Z,1.00
2023-04-19T12:58:57.759Z,1.00
2023-04-19T12:59:57.764Z,1.00
2023-04-19T13:00:57.781Z,1.50
2023-04-19T13:01:58.357Z,1.10
2023-04-19T13:02:57.812Z,1.30
2023-04-19T13:03:59.208Z,1.20
2023-04-19T13:04:57.818Z,1.20
2023-04-19T13:05:57.676Z,1.00
2023-04-19T13:06:57.676Z,1.10
2023-04-19T13:07:57.674Z,1.10
2023-04-19T13:09:00.793Z,0.90
2023-04-19T13:09:57.672Z,1.20
2023-04-19T13:10:57.643Z,1.00
2023-04-19T13:11:57.637Z,1.30
2023-04-19T13:12:57.631Z,1.00
2023-04-19T13:13:57.595Z,1.00
2023-04-19T13:14:57.623Z,1.00
2023-04-19T13:15:57.589Z,1.20
2023-04-19T13:16:57.581Z,1.10
2023-04-19T13:17:57.587Z,1.40
2023-04-19T13:18:57.548Z,1.00
2023-04-19T13:19:57.549Z,1.00
2023-04-19T13:20:57.541Z,0.90
2023-04-19T13:21:57.509Z,1.20
2023-04-19T13:22:57.509Z,1.20
2023-04-19T13:23:57.513Z,0.90